createdAt,value
2023-01-28T00:03:42.523Z,17.00
2023-01-28T00:08:44.590Z,21.10
2023-01-28T00:13:52.883Z,20.40
2023-01-28T00:18:54.888Z,16.00
2023-01-28T00:23:57.359Z,20.10
2023-01-28T00:28:59.142Z,17.50
2023-01-28T00:34:01.023Z,13.00
2023-01-28T00:39:02.981Z,10.30
2023-01-28T00:44:04.755Z,16.80
2023-01-28T00:49:06.659Z,18.00
2023-01-28T00:54:12.835Z,13.50
2023-01-28T00:59:14.693Z,16.70
2023-01-28T01:04:26.399Z,19.20
2023-01-28T01:09:28.345Z,11.10
2023-01-28T01:14:31.887Z,15.00
2023-01-28T01:19:33.629Z,17.20
2023-01-28T01:24:35.482Z,15.90
2023-01-28T01:29:37.213Z,12.30
2023-01-28T01:34:38.895Z,18.30
2023-01-28T01:39:40.651Z,14.30
2023-01-28T01:45:01.806Z,9.10
2023-01-28T01:50:23.103Z,15.20
2023-01-28T01:55:29.716Z,11.60
2023-01-28T02:00:32.466Z,10.80
2023-01-28T02:05:34.419Z,10.80
2023-01-28T02:10:36.525Z,13.60
2023-01-28T02:15:38.818Z,12.60
2023-01-28T02:21:07.328Z,15.00
2023-01-28T02:26:31.785Z,10.80
2023-01-28T02:31:44.883Z,9.60
2023-01-28T02:37:21.186Z,8.10
2023-01-28T02:42:32.306Z,10.80
2023-01-28T02:48:12.552Z,9.00
2023-01-28T02:53:41.029Z,10.00
2023-01-28T02:58:55.977Z,14.00
2023-01-28T03:04:08.245Z,12.10
2023-01-28T03:09:26.903Z,9.90
2023-01-28T03:14:51.181Z,17.10
2023-01-28T03:20:13.516Z,12.50
2023-01-28T03:25:35.479Z,10.90
2023-01-28T03:31:15.869Z,7.80
2023-01-28T03:36:42.938Z,14.30
2023-01-28T03:42:00.439Z,14.30
2023-01-28T03:47:02.829Z,12.60
2023-01-28T03:52:04.936Z,11.20
2023-01-28T03:57:06.923Z,8.70
2023-01-28T04:02:11.118Z,11.50
2023-01-28T04:07:16.940Z,7.00
2023-01-28T04:12:51.318Z,10.50
2023-01-28T04:17:54.234Z,10.00
2023-01-28T04:23:01.140Z,12.80
2023-01-28T04:28:04.007Z,13.70
2023-01-28T04:33:06.342Z,13.50
2023-01-28T04:38:37.908Z,16.80
2023-01-28T04:43:57.411Z,17.00
2023-01-28T04:49:19.457Z,11.90
2023-01-28T04:54:46.725Z,10.00
2023-01-28T04:59:48.481Z,12.40
2023-01-28T05:04:51.124Z,13.70
2023-01-28T05:10:19.795Z,13.40
2023-01-28T05:15:22.387Z,11.60
2023-01-28T05:20:24.907Z,15.00
2023-01-28T05:25:30.739Z,10.40
2023-01-28T05:30:32.649Z,4.80
2023-01-28T05:35:34.813Z,15.50
2023-01-28T05:40:36.743Z,10.10
2023-01-28T05:45:39.715Z,8.70
2023-01-28T05:50:47.960Z,10.40
2023-01-28T05:55:54.550Z,7.00
2023-01-28T06:00:56.776Z,10.10
2023-01-28T06:06:02.127Z,15.90
2023-01-28T06:11:04.741Z,12.80
2023-01-28T06:16:08.765Z,14.40
2023-01-28T06:21:19.489Z,12.50
2023-01-28T06:26:21.474Z,11.80
2023-01-28T06:31:23.267Z,37.40
2023-01-28T06:36:25.143Z,16.00
2023-01-28T06:41:27.198Z,32.80
2023-01-28T06:46:29.121Z,30.70
2023-01-28T06:51:31.240Z,17.10
2023-01-28T06:56:33.546Z,14.50
2023-01-28T07:01:35.472Z,12.90
2023-01-28T07:06:37.551Z,8.50
2023-01-28T07:11:39.419Z,13.80
2023-01-28T07:16:41.189Z,14.10
2023-01-28T07:21:42.881Z,10.70
2023-01-28T07:26:44.730Z,12.90
2023-01-28T07:31:46.836Z,16.90
2023-01-28T07:36:48.740Z,16.90
2023-01-28T07:41:50.759Z,14.30
2023-01-28T07:47:12.797Z,12.10
2023-01-28T07:52:15.352Z,15.00
2023-01-28T07:57:23.260Z,11.40
2023-01-28T08:02:25.208Z,13.10
2023-01-28T08:07:27.766Z,15.70
2023-01-28T08:12:29.663Z,12.60
2023-01-28T08:17:31.901Z,15.80
2023-01-28T08:22:33.608Z,11.60
2023-01-28T08:27:35.346Z,10.30
2023-01-28T08:32:37.753Z,11.70
2023-01-28T08:37:39.457Z,9.90
2023-01-28T08:42:47.161Z,9.00
2023-01-28T08:47:54.316Z,13.50
2023-01-28T08:53:09.915Z,12.10
2023-01-28T08:58:14.320Z,10.40
2023-01-28T09:03:16.925Z,7.90
2023-01-28T09:08:18.773Z,17.70
2023-01-28T09:13:20.551Z,13.60
2023-01-28T09:18:22.274Z,9.10
2023-01-28T09:23:24.045Z,10.70
2023-01-28T09:28:25.760Z,8.60
2023-01-28T09:33:27.413Z,32.80
2023-01-28T09:38:32.400Z,32.80
2023-01-28T09:43:43.171Z,13.40
2023-01-28T09:48:49.467Z,18.30
2023-01-28T09:53:55.504Z,11.70
2023-01-28T09:59:02.141Z,10.80
2023-01-28T10:04:33.820Z,20.20
2023-01-28T10:09:56.469Z,10.40
2023-01-28T10:15:22.179Z,20.70
2023-01-28T10:20:31.007Z,20.20
2023-01-28T10:25:34.800Z,7.70
2023-01-28T10:30:40.511Z,9.10
2023-01-28T10:35:43.735Z,10.60
2023-01-28T10:40:49.220Z,10.40
2023-01-28T10:46:01.900Z,7.10
2023-01-28T10:51:07.218Z,5.70
2023-01-28T10:56:15.918Z,10.00
2023-01-28T11:01:17.699Z,10.70
2023-01-28T11:06:27.531Z,8.70
2023-01-28T11:11:29.953Z,9.80
2023-01-28T11:16:31.920Z,12.10
2023-01-28T11:21:35.496Z,7.10
2023-01-28T11:26:39.918Z,8.40
2023-01-28T11:31:44.500Z,11.50
2023-01-28T11:36:52.472Z,11.30
2023-01-28T11:41:55.519Z,10.60
2023-01-28T11:47:05.438Z,13.00
2023-01-28T11:53:04.894Z,11.60
2023-01-28T11:58:12.424Z,7.80
2023-01-28T12:04:02.912Z,6.90
2023-01-28T12:09:19.368Z,7.50
2023-01-28T12:14:42.281Z,11.30
2023-01-28T12:20:05.897Z,11.70
2023-01-28T12:30:24.237Z,10.60
2023-01-28T12:35:56.391Z,10.20
2023-01-28T12:41:09.295Z,13.70
2023-01-28T12:46:29.842Z,12.60
2023-01-28T12:51:39.532Z,9.70
2023-01-28T12:56:46.319Z,14.10
2023-01-28T13:02:11.182Z,12.30
2023-01-28T13:07:18.220Z,13.00
2023-01-28T13:12:20.999Z,15.60
2023-01-28T13:17:29.565Z,16.90
2023-01-28T13:22:40.049Z,24.10
2023-01-28T13:27:41.826Z,20.40
2023-01-28T13:32:54.883Z,13.70
2023-01-28T13:37:57.444Z,16.70
2023-01-28T13:43:44.416Z,13.10
2023-01-28T13:48:52.145Z,16.00
2023-01-28T13:53:58.768Z,15.90
2023-01-28T13:59:23.781Z,17.30
2023-01-28T14:04:44.238Z,20.70
2023-01-28T14:09:59.882Z,21.30
2023-01-28T14:15:49.395Z,19.10
2023-01-28T14:20:53.262Z,12.90
2023-01-28T14:26:17.661Z,15.00
2023-01-28T14:31:27.994Z,15.80
2023-01-28T14:36:30.395Z,14.80
2023-01-28T14:41:32.375Z,19.30
2023-01-28T14:46:42.559Z,19.70
2023-01-28T14:51:54.344Z,24.30
2023-01-28T14:57:37.612Z,24.80
2023-01-28T15:02:44.930Z,13.10
2023-01-28T15:07:59.059Z,15.40
2023-01-28T15:13:11.282Z,23.70
2023-01-28T15:18:15.510Z,17.60
2023-01-28T15:23:20.882Z,16.60
2023-01-28T15:28:31.664Z,20.60
2023-01-28T15:33:33.390Z,23.90
2023-01-28T15:38:35.212Z,21.30
2023-01-28T15:43:38.793Z,15.00
2023-01-28T15:48:44.313Z,25.00
2023-01-28T15:53:50.004Z,14.00
2023-01-28T15:58:51.953Z,18.60
2023-01-28T16:04:02.839Z,24.60
2023-01-28T16:09:22.469Z,21.90
2023-01-28T16:14:30.860Z,23.30
2023-01-28T16:19:42.155Z,18.10
2023-01-28T16:24:52.734Z,18.90
2023-01-28T16:30:01.592Z,27.40
2023-01-28T16:35:06.819Z,34.00
2023-01-28T16:40:09.961Z,27.00
2023-01-28T16:45:18.917Z,29.00
2023-01-28T16:50:22.157Z,22.80
2023-01-28T16:55:24.612Z,17.00
2023-01-28T17:00:27.573Z,31.30
2023-01-28T17:05:29.444Z,19.90
2023-01-28T17:10:31.504Z,24.50
2023-01-28T17:15:35.402Z,27.10
2023-01-28T17:20:40.379Z,21.90
2023-01-28T17:25:43.386Z,20.80
2023-01-28T17:30:45.169Z,25.00
2023-01-28T17:35:48.235Z,25.50
2023-01-28T17:40:50.125Z,19.20
2023-01-28T17:45:52.049Z,24.50
2023-01-28T17:50:57.411Z,27.80
2023-01-28T17:55:59.154Z,26.60
2023-01-28T18:01:08.538Z,25.30
2023-01-28T18:06:10.486Z,22.60
2023-01-28T18:11:14.871Z,20.80
2023-01-28T18:16:20.783Z,17.50
2023-01-28T18:21:51.295Z,16.60
2023-01-28T18:26:55.716Z,25.50
2023-01-28T18:31:58.632Z,14.20
2023-01-28T18:37:01.250Z,6.80
2023-01-28T18:42:02.935Z,12.90
2023-01-28T18:47:04.689Z,12.40
2023-01-28T18:52:06.518Z,7.90
2023-01-28T18:57:08.197Z,14.70
2023-01-28T19:02:13.996Z,13.20
2023-01-28T19:07:15.847Z,13.70
2023-01-28T19:12:17.717Z,11.80
2023-01-28T19:17:19.775Z,12.90
2023-01-28T19:22:21.683Z,12.20
2023-01-28T19:27:23.765Z,11.10
2023-01-28T19:32:25.849Z,8.60
2023-01-28T19:37:27.729Z,6.50
2023-01-28T19:42:30.123Z,13.80
2023-01-28T19:47:32.798Z,8.90
2023-01-28T19:52:34.434Z,12.70
2023-01-28T19:57:36.137Z,13.10
2023-01-28T20:02:37.899Z,14.90
2023-01-28T20:07:39.629Z,21.70
2023-01-28T20:12:41.290Z,7.10
2023-01-28T20:17:43.172Z,12.80
2023-01-28T20:22:45.268Z,13.80
2023-01-28T20:27:47.651Z,12.80
2023-01-28T20:32:49.438Z,11.00
2023-01-28T20:37:51.412Z,15.00
2023-01-28T20:42:53.391Z,15.00
2023-01-28T20:47:55.116Z,11.00
2023-01-28T20:52:57.222Z,10.50
2023-01-28T20:58:09.171Z,12.20
2023-01-28T21:03:10.943Z,15.20
2023-01-28T21:08:14.601Z,14.50
2023-01-28T21:13:16.358Z,12.70
2023-01-28T21:18:18.252Z,11.60
2023-01-28T21:23:20.215Z,14.00
2023-01-28T21:28:21.960Z,11.40
2023-01-28T21:33:23.862Z,14.30
2023-01-28T21:38:25.841Z,9.70
2023-01-28T21:43:27.622Z,13.70
2023-01-28T21:48:30.628Z,13.40
2023-01-28T21:53:32.318Z,10.50
2023-01-28T21:58:56.823Z,10.20
2023-01-28T22:03:58.898Z,13.50
2023-01-28T22:09:01.100Z,11.50
2023-01-28T22:14:09.418Z,12.80
2023-01-28T22:19:11.877Z,7.90
2023-01-28T22:24:19.478Z,10.10
2023-01-28T22:29:22.974Z,5.90
2023-01-28T22:34:24.792Z,9.40
2023-01-28T22:39:26.522Z,9.50
2023-01-28T22:44:28.279Z,9.10
2023-01-28T22:49:29.956Z,8.70
2023-01-28T22:54:31.972Z,5.90
2023-01-28T22:59:33.806Z,9.80
2023-01-28T23:04:35.558Z,8.10
2023-01-28T23:09:37.280Z,7.00
2023-01-28T23:14:57.864Z,5.70
2023-01-28T23:20:18.533Z,9.00
2023-01-28T23:25:22.742Z,7.10
2023-01-28T23:30:25.393Z,5.30
2023-01-28T23:35:27.499Z,9.10
2023-01-28T23:40:29.377Z,5.20
2023-01-28T23:45:31.133Z,10.70
2023-01-28T23:50:33.077Z,11.80
2023-01-28T23:55:34.793Z,7.50
